sensor_id;sensor_type;location;lat;lon;timestamp;temperature;humidity
7254;DHT22;4060;49.186;9.226;2023-05-07T00:01:41;22.70;47.90
7254;DHT22;4060;49.186;9.226;2023-05-07T00:04:10;22.70;48.00
7254;DHT22;4060;49.186;9.226;2023-05-07T00:06:40;22.60;47.90
7254;DHT22;4060;49.186;9.226;2023-05-07T00:09:09;22.60;48.00
7254;DHT22;4060;49.186;9.226;2023-05-07T00:11:39;22.60;48.10
7254;DHT22;4060;49.186;9.226;2023-05-07T00:14:08;22.60;48.10
7254;DHT22;4060;49.186;9.226;2023-05-07T00:16:38;22.60;48.10
7254;DHT22;4060;49.186;9.226;2023-05-07T00:19:09;22.50;48.10
7254;DHT22;4060;49.186;9.226;2023-05-07T00:21:38;22.50;48.10
7254;DHT22;4060;49.186;9.226;2023-05-07T00:24:08;22.50;48.20
7254;DHT22;4060;49.186;9.226;2023-05-07T00:26:37;22.40;48.20
7254;DHT22;4060;49.186;9.226;2023-05-07T00:29:06;22.50;48.30
7254;DHT22;4060;49.186;9.226;2023-05-07T00:31:36;22.40;48.30
7254;DHT22;4060;49.186;9.226;2023-05-07T00:34:05;22.40;48.40
7254;DHT22;4060;49.186;9.226;2023-05-07T00:36:36;22.40;48.40
7254;DHT22;4060;49.186;9.226;2023-05-07T00:39:06;22.40;48.50
7254;DHT22;4060;49.186;9.226;2023-05-07T00:41:36;22.30;48.50
7254;DHT22;4060;49.186;9.226;2023-05-07T00:44:05;22.30;48.50
7254;DHT22;4060;49.186;9.226;2023-05-07T00:46:35;22.30;48.50
7254;DHT22;4060;49.186;9.226;2023-05-07T00:49:04;22.30;48.60
7254;DHT22;4060;49.186;9.226;2023-05-07T00:51:35;22.20;48.50
7254;DHT22;4060;49.186;9.226;2023-05-07T00:54:05;22.20;48.60
7254;DHT22;4060;49.186;9.226;2023-05-07T00:56:35;22.20;48.70
7254;DHT22;4060;49.186;9.226;2023-05-07T00:59:07;22.20;49.20
7254;DHT22;4060;49.186;9.226;2023-05-07T01:01:37;22.10;48.70
7254;DHT22;4060;49.186;9.226;2023-05-07T01:04:07;22.10;48.70
7254;DHT22;4060;49.186;9.226;2023-05-07T01:06:38;22.10;48.80
7254;DHT22;4060;49.186;9.226;2023-05-07T01:09:08;22.10;48.80
7254;DHT22;4060;49.186;9.226;2023-05-07T01:11:37;22.10;48.80
7254;DHT22;4060;49.186;9.226;2023-05-07T01:14:08;22.00;48.80
7254;DHT22;4060;49.186;9.226;2023-05-07T01:16:38;22.00;48.90
7254;DHT22;4060;49.186;9.226;2023-05-07T01:19:09;22.00;49.00
7254;DHT22;4060;49.186;9.226;2023-05-07T01:21:45;22.00;49.00
7254;DHT22;4060;49.186;9.226;2023-05-07T01:24:17;21.90;49.00
7254;DHT22;4060;49.186;9.226;2023-05-07T01:26:46;21.90;49.00
7254;DHT22;4060;49.186;9.226;2023-05-07T01:29:15;21.90;49.10
7254;DHT22;4060;49.186;9.226;2023-05-07T01:31:45;21.90;49.10
7254;DHT22;4060;49.186;9.226;2023-05-07T01:34:16;21.80;49.10
7254;DHT22;4060;49.186;9.226;2023-05-07T01:36:47;21.80;49.20
7254;DHT22;4060;49.186;9.226;2023-05-07T01:39:18;21.80;49.20
7254;DHT22;4060;49.186;9.226;2023-05-07T01:41:47;21.80;49.30
7254;DHT22;4060;49.186;9.226;2023-05-07T01:44:17;21.70;49.20
7254;DHT22;4060;49.186;9.226;2023-05-07T01:46:48;21.70;49.20
7254;DHT22;4060;49.186;9.226;2023-05-07T01:49:17;21.70;49.30
7254;DHT22;4060;49.186;9.226;2023-05-07T01:51:48;21.70;49.30
7254;DHT22;4060;49.186;9.226;2023-05-07T01:54:26;21.70;49.40
7254;DHT22;4060;49.186;9.226;2023-05-07T01:56:57;21.60;49.30
7254;DHT22;4060;49.186;9.226;2023-05-07T01:59:26;21.60;49.30
7254;DHT22;4060;49.186;9.226;2023-05-07T02:01:56;21.60;49.40
7254;DHT22;4060;49.186;9.226;2023-05-07T02:04:25;21.60;49.40
7254;DHT22;4060;49.186;9.226;2023-05-07T02:06:55;21.60;49.50
7254;DHT22;4060;49.186;9.226;2023-05-07T02:09:26;21.50;49.40
7254;DHT22;4060;49.186;9.226;2023-05-07T02:11:55;21.50;49.50
7254;DHT22;4060;49.186;9.226;2023-05-07T02:14:25;21.50;49.50
7254;DHT22;4060;49.186;9.226;2023-05-07T02:16:54;21.50;49.50
7254;DHT22;4060;49.186;9.226;2023-05-07T02:19:24;21.40;49.50
7254;DHT22;4060;49.186;9.226;2023-05-07T02:21:53;21.40;49.50
7254;DHT22;4060;49.186;9.226;2023-05-07T02:24:26;21.40;49.50
7254;DHT22;4060;49.186;9.226;2023-05-07T02:26:55;21.40;49.60
7254;DHT22;4060;49.186;9.226;2023-05-07T02:29:24;21.40;49.60
7254;DHT22;4060;49.186;9.226;2023-05-07T02:31:54;21.40;49.70
7254;DHT22;4060;49.186;9.226;2023-05-07T02:34:23;21.30;49.70
7254;DHT22;4060;49.186;9.226;2023-05-07T02:36:52;21.30;49.70
7254;DHT22;4060;49.186;9.226;2023-05-07T02:39:22;21.30;49.70
7254;DHT22;4060;49.186;9.226;2023-05-07T02:41:53;21.30;49.80
7254;DHT22;4060;49.186;9.226;2023-05-07T02:44:23;21.30;49.80
7254;DHT22;4060;49.186;9.226;2023-05-07T02:46:52;21.20;49.80
7254;DHT22;4060;49.186;9.226;2023-05-07T02:49:21;21.20;49.80
7254;DHT22;4060;49.186;9.226;2023-05-07T02:51:51;21.20;49.80
7254;DHT22;4060;49.186;9.226;2023-05-07T02:54:21;21.20;49.80
7254;DHT22;4060;49.186;9.226;2023-05-07T02:56:52;21.10;49.80
7254;DHT22;4060;49.186;9.226;2023-05-07T02:59:22;21.10;49.90
7254;DHT22;4060;49.186;9.226;2023-05-07T03:01:51;21.10;49.90
7254;DHT22;4060;49.186;9.226;2023-05-07T03:04:20;21.10;49.90
7254;DHT22;4060;49.186;9.226;2023-05-07T03:06:49;21.10;50.00
7254;DHT22;4060;49.186;9.226;2023-05-07T03:09:19;21.00;49.90
7254;DHT22;4060;49.186;9.226;2023-05-07T03:11:48;21.00;49.90
7254;DHT22;4060;49.186;9.226;2023-05-07T03:14:20;21.00;50.00
7254;DHT22;4060;49.186;9.226;2023-05-07T03:16:50;21.00;50.00
7254;DHT22;4060;49.186;9.226;2023-05-07T03:19:19;21.00;50.00
7254;DHT22;4060;49.186;9.226;2023-05-07T03:21:48;20.90;50.00
7254;DHT22;4060;49.186;9.226;2023-05-07T03:24:18;20.90;50.00
7254;DHT22;4060;49.186;9.226;2023-05-07T03:26:47;20.90;50.00
7254;DHT22;4060;49.186;9.226;2023-05-07T03:29:23;20.90;50.10
7254;DHT22;4060;49.186;9.226;2023-05-07T03:31:53;20.90;50.10
7254;DHT22;4060;49.186;9.226;2023-05-07T03:34:22;20.80;50.10
7254;DHT22;4060;49.186;9.226;2023-05-07T03:36:52;20.80;50.10
7254;DHT22;4060;49.186;9.226;2023-05-07T03:39:21;20.80;50.20
7254;DHT22;4060;49.186;9.226;2023-05-07T03:41:50;20.80;50.20
7254;DHT22;4060;49.186;9.226;2023-05-07T03:44:21;20.80;50.20
7254;DHT22;4060;49.186;9.226;2023-05-07T03:46:51;20.80;50.30
7254;DHT22;4060;49.186;9.226;2023-05-07T03:49:20;20.70;50.20
7254;DHT22;4060;49.186;9.226;2023-05-07T03:51:50;20.70;50.20
7254;DHT22;4060;49.186;9.226;2023-05-07T03:54:19;20.70;50.20
7254;DHT22;4060;49.186;9.226;2023-05-07T03:56:47;20.70;49.80
7254;DHT22;4060;49.186;9.226;2023-05-07T03:59:16;20.70;50.30
7254;DHT22;4060;49.186;9.226;2023-05-07T04:01:47;20.60;50.30
7254;DHT22;4060;49.186;9.226;2023-05-07T04:04:16;20.60;50.30
7254;DHT22;4060;49.186;9.226;2023-05-07T04:06:45;20.60;50.40
7254;DHT22;4060;49.186;9.226;2023-05-07T04:09:15;20.60;50.30
7254;DHT22;4060;49.186;9.226;2023-05-07T04:11:44;20.60;50.40
7254;DHT22;4060;49.186;9.226;2023-05-07T04:14:13;20.50;50.50
7254;DHT22;4060;49.186;9.226;2023-05-07T04:16:43;20.50;50.40
7254;DHT22;4060;49.186;9.226;2023-05-07T04:19:14;20.50;50.50
7254;DHT22;4060;49.186;9.226;2023-05-07T04:21:44;20.50;50.50
7254;DHT22;4060;49.186;9.226;2023-05-07T04:24:13;20.50;50.50
7254;DHT22;4060;49.186;9.226;2023-05-07T04:26:42;20.50;50.60
7254;DHT22;4060;49.186;9.226;2023-05-07T04:29:11;20.40;50.50
7254;DHT22;4060;49.186;9.226;2023-05-07T04:31:41;20.40;50.50
7254;DHT22;4060;49.186;9.226;2023-05-07T04:34:11;20.40;50.60
7254;DHT22;4060;49.186;9.226;2023-05-07T04:36:43;20.40;50.60
7254;DHT22;4060;49.186;9.226;2023-05-07T04:39:13;20.40;50.70
7254;DHT22;4060;49.186;9.226;2023-05-07T04:41:43;20.40;50.70
7254;DHT22;4060;49.186;9.226;2023-05-07T04:44:12;20.40;50.80
7254;DHT22;4060;49.186;9.226;2023-05-07T04:46:42;20.30;50.70
7254;DHT22;4060;49.186;9.226;2023-05-07T04:49:12;20.30;50.70
7254;DHT22;4060;49.186;9.226;2023-05-07T04:51:43;20.30;50.80
7254;DHT22;4060;49.186;9.226;2023-05-07T04:54:12;20.30;50.90
7254;DHT22;4060;49.186;9.226;2023-05-07T04:56:41;20.30;50.90
7254;DHT22;4060;49.186;9.226;2023-05-07T04:59:10;20.30;50.90
7254;DHT22;4060;49.186;9.226;2023-05-07T05:01:39;20.30;51.00
7254;DHT22;4060;49.186;9.226;2023-05-07T05:04:09;20.30;51.00
7254;DHT22;4060;49.186;9.226;2023-05-07T05:06:39;20.20;51.00
7254;DHT22;4060;49.186;9.226;2023-05-07T05:09:10;20.20;51.00
7254;DHT22;4060;49.186;9.226;2023-05-07T05:11:39;20.20;51.00
7254;DHT22;4060;49.186;9.226;2023-05-07T05:14:09;20.20;51.10
7254;DHT22;4060;49.186;9.226;2023-05-07T05:16:38;20.20;51.20
7254;DHT22;4060;49.186;9.226;2023-05-07T05:19:07;20.20;51.30
7254;DHT22;4060;49.186;9.226;2023-05-07T05:21:36;20.20;51.30
7254;DHT22;4060;49.186;9.226;2023-05-07T05:24:06;20.20;51.40
7254;DHT22;4060;49.186;9.226;2023-05-07T05:26:37;20.20;51.40
7254;DHT22;4060;49.186;9.226;2023-05-07T05:29:07;20.10;51.30
7254;DHT22;4060;49.186;9.226;2023-05-07T05:31:37;20.10;51.40
7254;DHT22;4060;49.186;9.226;2023-05-07T05:34:08;20.10;51.40
7254;DHT22;4060;49.186;9.226;2023-05-07T05:36:37;20.10;51.50
7254;DHT22;4060;49.186;9.226;2023-05-07T05:39:07;20.10;51.60
7254;DHT22;4060;49.186;9.226;2023-05-07T05:41:39;20.10;51.60
7254;DHT22;4060;49.186;9.226;2023-05-07T05:44:08;20.10;51.60
7254;DHT22;4060;49.186;9.226;2023-05-07T05:46:37;20.10;51.60
7254;DHT22;4060;49.186;9.226;2023-05-07T05:49:07;20.10;51.60
7254;DHT22;4060;49.186;9.226;2023-05-07T05:51:36;20.10;51.80
7254;DHT22;4060;49.186;9.226;2023-05-07T05:54:07;20.10;51.90
7254;DHT22;4060;49.186;9.226;2023-05-07T05:56:39;20.10;51.90
7254;DHT22;4060;49.186;9.226;2023-05-07T05:59:08;20.10;52.00
7254;DHT22;4060;49.186;9.226;2023-05-07T06:01:37;20.10;52.00
7254;DHT22;4060;49.186;9.226;2023-05-07T06:04:07;20.10;51.90
7254;DHT22;4060;49.186;9.226;2023-05-07T06:06:36;20.10;52.00
7254;DHT22;4060;49.186;9.226;2023-05-07T06:09:06;20.10;52.00
7254;DHT22;4060;49.186;9.226;2023-05-07T06:11:35;20.10;52.10
7254;DHT22;4060;49.186;9.226;2023-05-07T06:14:07;20.10;52.20
7254;DHT22;4060;49.186;9.226;2023-05-07T06:16:37;20.10;52.30
7254;DHT22;4060;49.186;9.226;2023-05-07T06:19:06;20.10;52.30
7254;DHT22;4060;49.186;9.226;2023-05-07T06:21:35;20.10;52.40
7254;DHT22;4060;49.186;9.226;2023-05-07T06:24:05;20.10;52.50
7254;DHT22;4060;49.186;9.226;2023-05-07T06:26:34;20.10;52.70
7254;DHT22;4060;49.186;9.226;2023-05-07T06:29:06;20.10;52.90
7254;DHT22;4060;49.186;9.226;2023-05-07T06:31:35;20.10;53.00
7254;DHT22;4060;49.186;9.226;2023-05-07T06:34:04;20.20;53.10
7254;DHT22;4060;49.186;9.226;2023-05-07T06:36:34;20.20;53.10
7254;DHT22;4060;49.186;9.226;2023-05-07T06:39:04;20.20;53.20
7254;DHT22;4060;49.186;9.226;2023-05-07T06:41:34;20.20;53.30
7254;DHT22;4060;49.186;9.226;2023-05-07T06:44:05;20.20;53.40
7254;DHT22;4060;49.186;9.226;2023-05-07T06:46:35;20.30;53.50
7254;DHT22;4060;49.186;9.226;2023-05-07T06:49:04;20.30;53.60
7254;DHT22;4060;49.186;9.226;2023-05-07T06:51:33;20.30;53.60
7254;DHT22;4060;49.186;9.226;2023-05-07T06:54:02;20.30;53.50
7254;DHT22;4060;49.186;9.226;2023-05-07T06:56:32;20.30;53.50
7254;DHT22;4060;49.186;9.226;2023-05-07T06:59:02;20.30;53.50
7254;DHT22;4060;49.186;9.226;2023-05-07T07:01:34;20.40;53.50
7254;DHT22;4060;49.186;9.226;2023-05-07T07:04:03;20.40;53.60
7254;DHT22;4060;49.186;9.226;2023-05-07T07:06:33;20.40;53.50
7254;DHT22;4060;49.186;9.226;2023-05-07T07:09:02;20.40;53.60
7254;DHT22;4060;49.186;9.226;2023-05-07T07:11:32;20.40;53.70
7254;DHT22;4060;49.186;9.226;2023-05-07T07:14:00;20.40;53.90
7254;DHT22;4060;49.186;9.226;2023-05-07T07:16:29;20.40;54.00
7254;DHT22;4060;49.186;9.226;2023-05-07T07:19:00;20.50;54.30
7254;DHT22;4060;49.186;9.226;2023-05-07T07:21:30;20.50;54.50
7254;DHT22;4060;49.186;9.226;2023-05-07T07:23:59;20.50;54.60
7254;DHT22;4060;49.186;9.226;2023-05-07T07:26:28;20.60;54.70
7254;DHT22;4060;49.186;9.226;2023-05-07T07:28:58;20.60;54.80
7254;DHT22;4060;49.186;9.226;2023-05-07T07:31:27;20.70;55.00
7254;DHT22;4060;49.186;9.226;2023-05-07T07:33:59;20.70;55.10
7254;DHT22;4060;49.186;9.226;2023-05-07T07:36:28;20.80;55.10
7254;DHT22;4060;49.186;9.226;2023-05-07T07:38:58;20.90;55.20
7254;DHT22;4060;49.186;9.226;2023-05-07T07:41:27;20.90;55.00
7254;DHT22;4060;49.186;9.226;2023-05-07T07:43:56;21.00;55.00
7254;DHT22;4060;49.186;9.226;2023-05-07T07:46:26;21.10;55.00
7254;DHT22;4060;49.186;9.226;2023-05-07T07:48:56;21.10;54.90
7254;DHT22;4060;49.186;9.226;2023-05-07T07:51:28;21.20;55.00
7254;DHT22;4060;49.186;9.226;2023-05-07T07:53:57;21.20;55.00
7254;DHT22;4060;49.186;9.226;2023-05-07T07:56:28;21.30;55.00
7254;DHT22;4060;49.186;9.226;2023-05-07T07:58:57;21.40;55.00
7254;DHT22;4060;49.186;9.226;2023-05-07T08:01:26;21.40;55.00
7254;DHT22;4060;49.186;9.226;2023-05-07T08:03:56;21.40;54.90
7254;DHT22;4060;49.186;9.226;2023-05-07T08:06:28;21.50;54.80
7254;DHT22;4060;49.186;9.226;2023-05-07T08:08:58;21.50;54.60
7254;DHT22;4060;49.186;9.226;2023-05-07T08:11:27;21.60;54.50
7254;DHT22;4060;49.186;9.226;2023-05-07T08:13:57;21.60;54.50
7254;DHT22;4060;49.186;9.226;2023-05-07T08:16:27;21.60;54.40
7254;DHT22;4060;49.186;9.226;2023-05-07T08:18:56;21.60;54.40
7254;DHT22;4060;49.186;9.226;2023-05-07T08:21:28;21.60;54.50
7254;DHT22;4060;49.186;9.226;2023-05-07T08:23:57;21.70;54.60
7254;DHT22;4060;49.186;9.226;2023-05-07T08:26:27;21.70;54.60
7254;DHT22;4060;49.186;9.226;2023-05-07T08:28:56;21.70;54.60
7254;DHT22;4060;49.186;9.226;2023-05-07T08:31:25;21.70;54.50
7254;DHT22;4060;49.186;9.226;2023-05-07T08:33:55;21.70;54.50
7254;DHT22;4060;49.186;9.226;2023-05-07T08:36:24;21.70;54.40
7254;DHT22;4060;49.186;9.226;2023-05-07T08:38:56;21.70;54.40
7254;DHT22;4060;49.186;9.226;2023-05-07T08:41:25;21.80;54.50
7254;DHT22;4060;49.186;9.226;2023-05-07T08:44:05;21.80;54.50
7254;DHT22;4060;49.186;9.226;2023-05-07T08:46:35;21.80;54.60
7254;DHT22;4060;49.186;9.226;2023-05-07T08:49:05;21.80;54.60
7254;DHT22;4060;49.186;9.226;2023-05-07T08:51:36;21.90;54.60
7254;DHT22;4060;49.186;9.226;2023-05-07T08:54:07;21.90;54.70
7254;DHT22;4060;49.186;9.226;2023-05-07T08:56:37;22.00;54.70
7254;DHT22;4060;49.186;9.226;2023-05-07T08:59:07;22.00;54.70
7254;DHT22;4060;49.186;9.226;2023-05-07T09:01:36;22.10;54.70
7254;DHT22;4060;49.186;9.226;2023-05-07T09:04:06;22.10;54.70
7254;DHT22;4060;49.186;9.226;2023-05-07T09:06:36;22.20;55.00
7254;DHT22;4060;49.186;9.226;2023-05-07T09:09:16;22.20;54.60
7254;DHT22;4060;49.186;9.226;2023-05-07T09:11:47;22.30;54.60
7254;DHT22;4060;49.186;9.226;2023-05-07T09:14:16;22.30;54.50
7254;DHT22;4060;49.186;9.226;2023-05-07T09:16:47;22.40;54.60
7254;DHT22;4060;49.186;9.226;2023-05-07T09:19:23;22.40;54.50
7254;DHT22;4060;49.186;9.226;2023-05-07T09:21:59;22.40;54.40
7254;DHT22;4060;49.186;9.226;2023-05-07T09:24:32;22.50;54.30
7254;DHT22;4060;49.186;9.226;2023-05-07T09:27:04;22.50;54.20
7254;DHT22;4060;49.186;9.226;2023-05-07T09:29:33;22.50;54.10
7254;DHT22;4060;49.186;9.226;2023-05-07T09:32:03;22.60;54.10
7254;DHT22;4060;49.186;9.226;2023-05-07T09:34:32;22.60;54.10
7254;DHT22;4060;49.186;9.226;2023-05-07T09:37:02;22.70;54.10
7254;DHT22;4060;49.186;9.226;2023-05-07T09:39:42;22.70;54.10
7254;DHT22;4060;49.186;9.226;2023-05-07T09:42:12;22.70;54.10
7254;DHT22;4060;49.186;9.226;2023-05-07T09:44:42;22.80;54.10
7254;DHT22;4060;49.186;9.226;2023-05-07T09:47:12;22.80;54.10
7254;DHT22;4060;49.186;9.226;2023-05-07T09:49:48;22.90;54.10
7254;DHT22;4060;49.186;9.226;2023-05-07T09:52:17;22.90;53.90
7254;DHT22;4060;49.186;9.226;2023-05-07T09:54:49;23.00;53.80
7254;DHT22;4060;49.186;9.226;2023-05-07T09:57:20;23.00;53.70
7254;DHT22;4060;49.186;9.226;2023-05-07T09:59:50;23.00;53.60
7254;DHT22;4060;49.186;9.226;2023-05-07T10:02:21;23.10;53.50
7254;DHT22;4060;49.186;9.226;2023-05-07T10:04:51;23.20;53.40
7254;DHT22;4060;49.186;9.226;2023-05-07T10:07:21;23.20;53.30
7254;DHT22;4060;49.186;9.226;2023-05-07T10:09:55;23.20;53.20
7254;DHT22;4060;49.186;9.226;2023-05-07T10:12:24;23.30;53.00
7254;DHT22;4060;49.186;9.226;2023-05-07T10:14:55;23.30;52.80
7254;DHT22;4060;49.186;9.226;2023-05-07T10:17:25;23.40;52.70
7254;DHT22;4060;49.186;9.226;2023-05-07T10:19:55;23.40;52.50
7254;DHT22;4060;49.186;9.226;2023-05-07T10:22:26;23.40;52.20
7254;DHT22;4060;49.186;9.226;2023-05-07T10:25:00;23.40;52.00
7254;DHT22;4060;49.186;9.226;2023-05-07T10:27:32;23.50;51.90
7254;DHT22;4060;49.186;9.226;2023-05-07T10:30:11;23.50;51.80
7254;DHT22;4060;49.186;9.226;2023-05-07T10:32:48;23.60;51.60
7254;DHT22;4060;49.186;9.226;2023-05-07T10:35:21;23.60;51.50
7254;DHT22;4060;49.186;9.226;2023-05-07T10:37:52;23.60;51.20
7254;DHT22;4060;49.186;9.226;2023-05-07T10:40:23;23.70;51.10
7254;DHT22;4060;49.186;9.226;2023-05-07T10:42:57;23.70;51.00
7254;DHT22;4060;49.186;9.226;2023-05-07T10:45:27;23.70;50.80
7254;DHT22;4060;49.186;9.226;2023-05-07T10:48:07;23.70;50.80
7254;DHT22;4060;49.186;9.226;2023-05-07T10:50:37;23.80;50.70
7254;DHT22;4060;49.186;9.226;2023-05-07T10:53:24;23.80;50.70
7254;DHT22;4060;49.186;9.226;2023-05-07T10:56:28;23.80;50.50
7254;DHT22;4060;49.186;9.226;2023-05-07T11:02:02;23.90;50.00
7254;DHT22;4060;49.186;9.226;2023-05-07T11:04:33;23.90;49.90
7254;DHT22;4060;49.186;9.226;2023-05-07T11:07:25;24.00;49.70
7254;DHT22;4060;49.186;9.226;2023-05-07T11:10:00;24.00;49.40
7254;DHT22;4060;49.186;9.226;2023-05-07T11:12:54;24.00;49.40
7254;DHT22;4060;49.186;9.226;2023-05-07T11:15:41;24.10;49.30
7254;DHT22;4060;49.186;9.226;2023-05-07T11:18:12;24.10;49.10
7254;DHT22;4060;49.186;9.226;2023-05-07T11:20:58;24.10;49.10
7254;DHT22;4060;49.186;9.226;2023-05-07T11:23:56;24.20;48.90
7254;DHT22;4060;49.186;9.226;2023-05-07T11:26:30;24.20;48.70
7254;DHT22;4060;49.186;9.226;2023-05-07T11:29:01;24.20;48.70
7254;DHT22;4060;49.186;9.226;2023-05-07T11:31:30;24.30;48.70
7254;DHT22;4060;49.186;9.226;2023-05-07T11:34:00;24.30;48.70
7254;DHT22;4060;49.186;9.226;2023-05-07T11:36:31;24.30;48.60
7254;DHT22;4060;49.186;9.226;2023-05-07T11:39:01;24.40;48.50
7254;DHT22;4060;49.186;9.226;2023-05-07T11:41:34;24.50;48.50
7254;DHT22;4060;49.186;9.226;2023-05-07T11:44:06;24.50;48.30
7254;DHT22;4060;49.186;9.226;2023-05-07T11:46:35;24.50;48.10
7254;DHT22;4060;49.186;9.226;2023-05-07T11:49:04;24.60;48.10
7254;DHT22;4060;49.186;9.226;2023-05-07T11:51:34;24.60;48.00
7254;DHT22;4060;49.186;9.226;2023-05-07T11:54:05;24.70;47.80
7254;DHT22;4060;49.186;9.226;2023-05-07T11:56:35;24.70;47.50
7254;DHT22;4060;49.186;9.226;2023-05-07T11:59:06;24.70;47.40
7254;DHT22;4060;49.186;9.226;2023-05-07T12:01:36;24.80;47.30
7254;DHT22;4060;49.186;9.226;2023-05-07T12:04:05;24.80;47.00
7254;DHT22;4060;49.186;9.226;2023-05-07T12:06:37;24.90;46.70
7254;DHT22;4060;49.186;9.226;2023-05-07T12:09:07;24.90;46.50
7254;DHT22;4060;49.186;9.226;2023-05-07T12:11:38;24.90;46.40
7254;DHT22;4060;49.186;9.226;2023-05-07T12:14:10;25.00;46.30
7254;DHT22;4060;49.186;9.226;2023-05-07T12:16:40;25.00;46.30
7254;DHT22;4060;49.186;9.226;2023-05-07T12:19:10;25.10;46.30
7254;DHT22;4060;49.186;9.226;2023-05-07T12:21:42;25.10;46.10
7254;DHT22;4060;49.186;9.226;2023-05-07T12:24:12;25.10;46.00
7254;DHT22;4060;49.186;9.226;2023-05-07T12:26:44;25.10;46.00
7254;DHT22;4060;49.186;9.226;2023-05-07T12:29:16;25.10;45.90
7254;DHT22;4060;49.186;9.226;2023-05-07T12:31:45;25.20;45.90
7254;DHT22;4060;49.186;9.226;2023-05-07T12:34:15;25.20;45.80
7254;DHT22;4060;49.186;9.226;2023-05-07T12:36:45;25.20;45.60
7254;DHT22;4060;49.186;9.226;2023-05-07T12:39:17;25.30;45.50
7254;DHT22;4060;49.186;9.226;2023-05-07T12:41:56;25.30;45.40
7254;DHT22;4060;49.186;9.226;2023-05-07T12:44:30;25.30;45.20
7254;DHT22;4060;49.186;9.226;2023-05-07T12:47:03;25.30;45.20
7254;DHT22;4060;49.186;9.226;2023-05-07T12:49:35;25.40;45.30
7254;DHT22;4060;49.186;9.226;2023-05-07T12:52:06;25.40;45.20
7254;DHT22;4060;49.186;9.226;2023-05-07T12:54:38;25.40;45.10
7254;DHT22;4060;49.186;9.226;2023-05-07T12:57:08;25.40;45.10
7254;DHT22;4060;49.186;9.226;2023-05-07T12:59:41;25.40;45.60
7254;DHT22;4060;49.186;9.226;2023-05-07T13:02:10;25.40;44.90
7254;DHT22;4060;49.186;9.226;2023-05-07T13:04:39;25.40;44.80
7254;DHT22;4060;49.186;9.226;2023-05-07T13:07:09;25.50;44.80
7254;DHT22;4060;49.186;9.226;2023-05-07T13:09:38;25.50;44.60
7254;DHT22;4060;49.186;9.226;2023-05-07T13:12:09;25.50;44.50
7254;DHT22;4060;49.186;9.226;2023-05-07T13:14:41;25.60;44.40
7254;DHT22;4060;49.186;9.226;2023-05-07T13:17:10;25.60;44.30
7254;DHT22;4060;49.186;9.226;2023-05-07T13:19:40;25.60;44.30
7254;DHT22;4060;49.186;9.226;2023-05-07T13:22:09;25.60;44.10
7254;DHT22;4060;49.186;9.226;2023-05-07T13:24:38;25.60;44.10
7254;DHT22;4060;49.186;9.226;2023-05-07T13:27:08;25.60;44.00
7254;DHT22;4060;49.186;9.226;2023-05-07T13:29:38;25.60;43.90
7254;DHT22;4060;49.186;9.226;2023-05-07T13:32:09;25.70;43.90
7254;DHT22;4060;49.186;9.226;2023-05-07T13:34:38;25.70;43.80
7254;DHT22;4060;49.186;9.226;2023-05-07T13:37:08;25.70;43.80
7254;DHT22;4060;49.186;9.226;2023-05-07T13:39:38;25.70;43.80
7254;DHT22;4060;49.186;9.226;2023-05-07T13:42:08;25.70;43.70
7254;DHT22;4060;49.186;9.226;2023-05-07T13:44:37;25.70;43.70
7254;DHT22;4060;49.186;9.226;2023-05-07T13:47:09;25.70;43.60
7254;DHT22;4060;49.186;9.226;2023-05-07T13:49:38;25.70;44.20
7254;DHT22;4060;49.186;9.226;2023-05-07T13:52:07;25.70;43.70
7254;DHT22;4060;49.186;9.226;2023-05-07T13:54:37;25.70;43.70
7254;DHT22;4060;49.186;9.226;2023-05-07T13:57:06;25.80;43.70
7254;DHT22;4060;49.186;9.226;2023-05-07T13:59:36;25.70;43.70
7254;DHT22;4060;49.186;9.226;2023-05-07T14:02:05;25.80;43.70
7254;DHT22;4060;49.186;9.226;2023-05-07T14:04:38;25.70;43.70
7254;DHT22;4060;49.186;9.226;2023-05-07T14:07:07;25.80;43.80
7254;DHT22;4060;49.186;9.226;2023-05-07T14:09:36;25.70;43.70
7254;DHT22;4060;49.186;9.226;2023-05-07T14:12:06;25.80;43.80
7254;DHT22;4060;49.186;9.226;2023-05-07T14:14:35;25.80;43.90
7254;DHT22;4060;49.186;9.226;2023-05-07T14:17:05;25.80;44.00
7254;DHT22;4060;49.186;9.226;2023-05-07T14:19:37;25.80;44.10
7254;DHT22;4060;49.186;9.226;2023-05-07T14:22:06;25.70;44.20
7254;DHT22;4060;49.186;9.226;2023-05-07T14:24:37;25.80;44.30
7254;DHT22;4060;49.186;9.226;2023-05-07T14:27:07;25.80;44.40
7254;DHT22;4060;49.186;9.226;2023-05-07T14:29:36;25.80;44.40
7254;DHT22;4060;49.186;9.226;2023-05-07T14:32:06;25.80;44.50
7254;DHT22;4060;49.186;9.226;2023-05-07T14:34:38;25.70;44.50
7254;DHT22;4060;49.186;9.226;2023-05-07T14:37:07;25.70;44.70
7254;DHT22;4060;49.186;9.226;2023-05-07T14:39:37;25.70;45.00
7254;DHT22;4060;49.186;9.226;2023-05-07T14:42:06;25.70;45.30
7254;DHT22;4060;49.186;9.226;2023-05-07T14:44:36;25.70;45.60
7254;DHT22;4060;49.186;9.226;2023-05-07T14:47:07;25.60;45.80
7254;DHT22;4060;49.186;9.226;2023-05-07T14:49:39;25.60;47.70
7254;DHT22;4060;49.186;9.226;2023-05-07T14:52:09;25.60;52.40
7254;DHT22;4060;49.186;9.226;2023-05-07T14:54:39;25.60;55.90
7254;DHT22;4060;49.186;9.226;2023-05-07T14:57:10;25.70;57.90
7254;DHT22;4060;49.186;9.226;2023-05-07T14:59:42;25.90;59.30
7254;DHT22;4060;49.186;9.226;2023-05-07T15:02:12;26.00;60.20
7254;DHT22;4060;49.186;9.226;2023-05-07T15:04:44;26.20;61.00
7254;DHT22;4060;49.186;9.226;2023-05-07T15:07:14;26.40;61.70
7254;DHT22;4060;49.186;9.226;2023-05-07T15:09:44;26.50;61.90
7254;DHT22;4060;49.186;9.226;2023-05-07T15:12:14;26.60;61.90
7254;DHT22;4060;49.186;9.226;2023-05-07T15:14:43;26.70;62.00
7254;DHT22;4060;49.186;9.226;2023-05-07T15:17:12;26.90;62.10
7254;DHT22;4060;49.186;9.226;2023-05-07T15:19:44;26.90;62.10
7254;DHT22;4060;49.186;9.226;2023-05-07T15:22:14;27.00;62.10
7254;DHT22;4060;49.186;9.226;2023-05-07T15:24:43;27.00;61.90
7254;DHT22;4060;49.186;9.226;2023-05-07T15:27:13;27.10;61.80
7254;DHT22;4060;49.186;9.226;2023-05-07T15:29:42;27.10;61.70
7254;DHT22;4060;49.186;9.226;2023-05-07T15:32:12;27.10;61.70
7254;DHT22;4060;49.186;9.226;2023-05-07T15:34:43;27.10;61.60
7254;DHT22;4060;49.186;9.226;2023-05-07T15:37:12;27.10;61.50
7254;DHT22;4060;49.186;9.226;2023-05-07T15:39:42;27.10;61.50
7254;DHT22;4060;49.186;9.226;2023-05-07T15:42:11;27.10;61.50
7254;DHT22;4060;49.186;9.226;2023-05-07T15:44:40;27.10;61.40
7254;DHT22;4060;49.186;9.226;2023-05-07T15:47:10;27.10;61.60
7254;DHT22;4060;49.186;9.226;2023-05-07T15:49:43;27.00;61.30
7254;DHT22;4060;49.186;9.226;2023-05-07T15:52:12;27.00;61.40
7254;DHT22;4060;49.186;9.226;2023-05-07T15:54:43;27.00;61.40
7254;DHT22;4060;49.186;9.226;2023-05-07T15:57:13;27.00;61.30
7254;DHT22;4060;49.186;9.226;2023-05-07T15:59:42;26.90;61.30
7254;DHT22;4060;49.186;9.226;2023-05-07T16:02:11;26.90;61.40
7254;DHT22;4060;49.186;9.226;2023-05-07T16:04:44;26.80;61.30
7254;DHT22;4060;49.186;9.226;2023-05-07T16:07:13;26.80;61.40
7254;DHT22;4060;49.186;9.226;2023-05-07T16:09:43;26.80;61.40
7254;DHT22;4060;49.186;9.226;2023-05-07T16:12:13;26.70;61.50
7254;DHT22;4060;49.186;9.226;2023-05-07T16:14:44;26.70;61.30
7254;DHT22;4060;49.186;9.226;2023-05-07T16:17:13;26.60;61.20
7254;DHT22;4060;49.186;9.226;2023-05-07T16:19:45;26.60;61.30
7254;DHT22;4060;49.186;9.226;2023-05-07T16:22:14;26.50;61.30
7254;DHT22;4060;49.186;9.226;2023-05-07T16:24:43;26.50;61.30
7254;DHT22;4060;49.186;9.226;2023-05-07T16:27:12;26.50;61.40